KHPN/HPN METAR and TAF weather

Enter ICAO airport designator
Station Type Date Time Source
KHPN METAR 2021/02/27 08:56 UTC NOAA

KHPN 270856Z 10006KT 6SM -SN BR BKN033 OVC055 02/M01 A3033 RMK AO2 SNE16B46 SLP277 P0000 60000 T00171011 58026


Station Type Date Time Source
KHPN Decoded METAR 2021/02/27 08:56 UTC NOAA

WHITE PLAINS WESTCHESTER, NY, United States (KHPN) 41-04N 073-42W 121M
Feb 27, 2021 - 03:56 AM EST / 2021.02.27 0856 UTC
Wind: from the E (100 degrees) at 7 MPH (6 KT):0
Visibility: 6 mile(s):0
Sky conditions: overcast
Weather: light snow; mist
Precipitation last hour: A trace
Temperature: 35.1 F (1.7 C)
Dew Point: 30.0 F (-1.1 C)
Relative Humidity: 81%
Pressure (altimeter): 30.33 in. Hg (1027 hPa)
Pressure tendency: 0.08 inches (2.6 hPa) lower than three hours ago
ob: KHPN 270856Z 10006KT 6SM -SN BR BKN033 OVC055 02/M01 A3033 RMK AO2 SNE16B46 SLP277 P0000 60000 T00171011 58026
cycle: 9

Station Type Date Time Source
KHPN TAF 2021/02/27 09:36 UTC NOAA

TAF
AMD KHPN 270835Z 2709/2806 VRB03KT P6SM BKN020
TEMPO 2709/2711 2SM -SN BKN020
FM271100 10005KT 3SM -RA BR SCT007 OVC015
FM271400 11007KT 2SM -RA BR OVC004
FM271800 VRB04KT 1SM -DZ BR OVC003
FM272100 26006KT 3SM BR OVC004
FM280000 30007KT P6SM SCT004
FM280400 32004KT P6SM BKN250
AMD NOT SKED

Example: see airport list